Time;durP1;ratioP1;P1;durP2;ratioP2;P2;SDS_P1;SDS_P2;PMS_P1;PMS_P2;Temp;Humidity;BMP_temperature;BMP_pressure;BME280_temperature;BME280_humidity;BME280_pressure;Samples;Min_cycle;Max_cycle;Signal;HPM_P1;HPM_P2
2023/10/14 00:01:29;;;;;;;9.68;4.32;;;;;;;;;;5032756;28;20116;-62
2023/10/14 00:03:56;;;;;;;10.73;4.20;;;;;;;;;;5032734;28;20456;-63
2023/10/14 00:06:21;;;;;;;10.38;4.07;;;;;;;;;;5032231;28;20217;-63
2023/10/14 00:11:22;;;;;;;11.57;4.80;;;;;;;;;;5048939;28;20064;-63
2023/10/14 00:13:55;;;;;;;8.68;4.50;;;;;;;;;;5052107;28;20082;-63
2023/10/14 00:16:29;;;;;;;11.95;5.03;;;;;;;;;;5052211;28;20066;-62
2023/10/14 00:19:08;;;;;;;10.88;4.35;;;;;;;;;;5052277;28;20394;-63
2023/10/14 00:21:35;;;;;;;10.00;4.70;;;;;;;;;;5052031;28;20331;-62
2023/10/14 00:24:03;;;;;;;8.30;5.00;;;;;;;;;;5052200;28;20021;-62
2023/10/14 00:26:29;;;;;;;9.80;4.53;;;;;;;;;;5055633;28;20037;-62
2023/10/14 00:31:30;;;;;;;9.32;4.68;;;;;;;;;;5580972;23;20058;-62
2023/10/14 00:33:56;;;;;;;8.73;4.03;;;;;;;;;;4980098;28;20491;-63
2023/10/14 00:36:30;;;;;;;9.70;4.88;;;;;;;;;;4976696;28;20019;-62
2023/10/14 00:39:00;;;;;;;8.55;4.90;;;;;;;;;;4977074;28;20170;-62
2023/10/14 00:41:26;;;;;;;16.90;4.97;;;;;;;;;;4977166;28;20030;-62
2023/10/14 00:43:53;;;;;;;7.53;4.53;;;;;;;;;;4977169;28;20435;-62
2023/10/14 00:46:22;;;;;;;9.70;4.72;;;;;;;;;;4976799;28;20037;-62
2023/10/14 00:48:49;;;;;;;14.10;5.05;;;;;;;;;;4976876;28;20082;-62
2023/10/14 00:51:15;;;;;;;6.50;4.00;;;;;;;;;;4977009;28;20035;-62
2023/10/14 00:53:52;;;;;;;8.18;4.90;;;;;;;;;;4977007;28;20026;-63
2023/10/14 00:56:27;;;;;;;9.23;4.80;;;;;;;;;;4976876;28;20077;-63
2023/10/14 00:58:59;;;;;;;12.13;5.25;;;;;;;;;;4977116;28;20054;-62
2023/10/14 01:01:31;;;;;;;16.05;5.57;;;;;;;;;;4976752;28;20333;-62
2023/10/14 01:04:17;;;;;;;8.88;4.82;;;;;;;;;;4976724;28;20034;-62
2023/10/14 01:09:41;;;;;;;12.25;5.00;;;;;;;;;;4976940;28;20035;-62
2023/10/14 01:12:19;;;;;;;5.88;3.85;;;;;;;;;;4976541;28;20059;-63
2023/10/14 01:14:45;;;;;;;15.07;4.97;;;;;;;;;;4976499;28;20031;-62
2023/10/14 01:17:21;;;;;;;12.75;5.25;;;;;;;;;;4976461;28;20035;-62
2023/10/14 01:19:47;;;;;;;11.80;5.18;;;;;;;;;;4976511;28;20349;-62
2023/10/14 01:22:12;;;;;;;7.97;4.38;;;;;;;;;;4976255;28;20077;-62
2023/10/14 01:24:39;;;;;;;11.77;5.03;;;;;;;;;;4976393;28;20033;-63
2023/10/14 01:27:05;;;;;;;9.90;4.75;;;;;;;;;;4957085;28;20085;-62
2023/10/14 01:29:31;;;;;;;11.57;4.78;;;;;;;;;;4956949;28;20103;-62
2023/10/14 01:32:11;;;;;;;12.75;5.20;;;;;;;;;;4966346;28;20050;-63
2023/10/14 01:34:43;;;;;;;9.43;5.07;;;;;;;;;;4995664;28;20022;-62
2023/10/14 01:37:19;;;;;;;8.90;4.40;;;;;;;;;;4995038;28;20034;-62
2023/10/14 01:39:48;;;;;;;9.05;3.85;;;;;;;;;;4995575;28;20154;-62
2023/10/14 01:42:16;;;;;;;8.40;4.35;;;;;;;;;;4995483;28;20467;-62
2023/10/14 01:44:41;;;;;;;9.68;4.80;;;;;;;;;;4995334;28;20131;-62
2023/10/14 01:47:07;;;;;;;9.30;4.38;;;;;;;;;;4995361;28;20085;-62
2023/10/14 01:49:36;;;;;;;11.57;5.38;;;;;;;;;;4995348;28;20042;-62
2023/10/14 01:52:02;;;;;;;9.32;4.32;;;;;;;;;;4995141;28;20022;-63
2023/10/14 01:54:28;;;;;;;8.73;4.57;;;;;;;;;;4995369;28;20430;-62
2023/10/14 01:56:54;;;;;;;12.25;5.50;;;;;;;;;;4995275;28;20022;-62
2023/10/14 01:59:23;;;;;;;11.23;5.18;;;;;;;;;;4995041;28;20109;-62
2023/10/14 02:01:49;;;;;;;7.38;4.57;;;;;;;;;;4995034;28;20033;-64
2023/10/14 02:04:15;;;;;;;8.40;4.53;;;;;;;;;;4995016;28;20098;-62
2023/10/14 02:06:46;;;;;;;6.80;3.75;;;;;;;;;;4985240;28;20070;-63
2023/10/14 02:09:12;;;;;;;10.68;4.60;;;;;;;;;;4975667;28;20053;-62
2023/10/14 02:11:38;;;;;;;9.13;4.55;;;;;;;;;;4975490;28;20546;-62
2023/10/14 02:14:07;;;;;;;9.73;4.78;;;;;;;;;;4975373;28;20074;-63
2023/10/14 02:16:43;;;;;;;9.80;5.05;;;;;;;;;;4975446;28;20496;-62
2023/10/14 02:19:19;;;;;;;10.05;4.70;;;;;;;;;;4975438;28;20049;-62
2023/10/14 02:21:48;;;;;;;11.32;4.25;;;;;;;;;;4975442;28;20037;-62
2023/10/14 02:24:15;;;;;;;8.10;4.25;;;;;;;;;;4975450;28;20027;-63
2023/10/14 02:26:40;;;;;;;13.13;4.57;;;;;;;;;;4975110;28;20053;-62
2023/10/14 02:29:11;;;;;;;8.18;4.30;;;;;;;;;;4975258;28;20523;-62
2023/10/14 02:31:36;;;;;;;9.57;4.38;;;;;;;;;;4974884;28;20086;-63
2023/10/14 02:34:08;;;;;;;9.52;4.55;;;;;;;;;;4986036;28;20073;-62
2023/10/14 02:36:35;;;;;;;9.40;4.57;;;;;;;;;;4994496;28;20062;-62
2023/10/14 02:39:14;;;;;;;13.52;4.25;;;;;;;;;;4994504;28;20038;-63
2023/10/14 02:41:43;;;;;;;5.65;3.70;;;;;;;;;;4994212;28;20459;-63
2023/10/14 02:46:44;;;;;;;12.55;4.00;;;;;;;;;;4994431;28;20575;-63
2023/10/14 02:49:18;;;;;;;6.75;3.85;;;;;;;;;;4993344;28;20081;-62
2023/10/14 02:51:45;;;;;;;10.88;4.28;;;;;;;;;;4994270;28;20030;-62
2023/10/14 02:54:15;;;;;;;7.38;3.70;;;;;;;;;;4994230;28;20394;-62
2023/10/14 02:56:55;;;;;;;8.43;3.67;;;;;;;;;;4993941;28;20034;-62
2023/10/14 02:59:43;;;;;;;11.40;3.90;;;;;;;;;;4994121;28;20030;-62
2023/10/14 03:02:24;;;;;;;9.45;4.43;;;;;;;;;;4994055;28;20049;-63
2023/10/14 03:04:55;;;;;;;7.70;3.70;;;;;;;;;;4994281;28;20030;-62
2023/10/14 03:12:49;;;;;;;9.15;4.40;;;;;;;;;;4993900;28;20442;-62
2023/10/14 03:15:19;;;;;;;10.25;4.55;;;;;;;;;;4993843;28;20122;-62
2023/10/14 03:18:03;;;;;;;9.38;4.00;;;;;;;;;;4993723;28;20036;-62
2023/10/14 03:23:19;;;;;;;14.18;4.20;;;;;;;;;;4993783;28;20106;-63
2023/10/14 03:25:53;;;;;;;9.52;3.55;;;;;;;;;;4984543;28;20138;-62
2023/10/14 03:28:20;;;;;;;6.53;3.45;;;;;;;;;;4974294;28;20038;-62
2023/10/14 03:30:48;;;;;;;12.60;3.63;;;;;;;;;;4974109;28;20118;-63
2023/10/14 03:33:20;;;;;;;11.43;3.13;;;;;;;;;;4978518;28;20535;-63
2023/10/14 03:36:00;;;;;;;8.18;3.90;;;;;;;;;;4993599;28;20464;-62
2023/10/14 03:43:28;;;;;;;6.57;3.30;;;;;;;;;;4993674;28;20042;-62
2023/10/14 03:46:02;;;;;;;11.93;3.58;;;;;;;;;;4993437;28;20026;-63
2023/10/14 03:48:29;;;;;;;9.70;3.55;;;;;;;;;;4993460;28;20435;-63
2023/10/14 03:51:02;;;;;;;5.88;3.20;;;;;;;;;;4993390;28;20026;-62
2023/10/14 03:53:34;;;;;;;6.78;3.10;;;;;;;;;;4993237;28;20026;-63
2023/10/14 03:56:03;;;;;;;5.70;2.90;;;;;;;;;;4993316;28;20045;-62
2023/10/14 03:58:32;;;;;;;11.32;3.75;;;;;;;;;;4993957;28;20039;-63
2023/10/14 04:01:01;;;;;;;7.03;3.85;;;;;;;;;;4999720;28;20034;-63
2023/10/14 04:03:51;;;;;;;7.80;3.30;;;;;;;;;;4999780;28;20113;-62
2023/10/14 04:06:17;;;;;;;7.78;3.22;;;;;;;;;;4999715;28;20045;-62
2023/10/14 04:08:49;;;;;;;7.65;3.67;;;;;;;;;;4999563;28;20105;-62
2023/10/14 04:11:28;;;;;;;6.93;3.08;;;;;;;;;;4999862;28;20022;-63
2023/10/14 04:16:47;;;;;;;6.45;3.00;;;;;;;;;;4999696;28;20419;-63
2023/10/14 04:20:22;;;;;;;9.18;2.92;;;;;;;;;;4999705;28;20077;-63
2023/10/14 04:22:27;;;;;;;5.07;2.90;;;;;;;;;;4990433;28;20450;-63
2023/10/14 04:25:07;;;;;;;7.15;2.70;;;;;;;;;;4997607;28;20023;-62
2023/10/14 04:27:36;;;;;;;9.00;2.90;;;;;;;;;;4979906;28;20030;-63
2023/10/14 04:30:13;;;;;;;7.93;3.45;;;;;;;;;;4979938;28;20031;-63
2023/10/14 04:33:18;;;;;;;5.97;3.17;;;;;;;;;;4979890;28;20042;-63
2023/10/14 04:35:33;;;;;;;6.25;3.10;;;;;;;;;;4960600;28;20392;-63
2023/10/14 04:38:03;;;;;;;13.10;3.78;;;;;;;;;;4960433;28;20106;-63
2023/10/14 04:45:52;;;;;;;6.65;3.35;;;;;;;;;;4960612;28;20035;-63
2023/10/14 04:51:06;;;;;;;7.05;3.50;;;;;;;;;;4960539;28;20023;-63
2023/10/14 04:53:31;;;;;;;5.85;3.50;;;;;;;;;;4960508;28;20107;-64
2023/10/14 04:56:01;;;;;;;8.27;2.92;;;;;;;;;;4960453;28;20051;-62
2023/10/14 04:58:27;;;;;;;5.67;2.93;;;;;;;;;;4960343;28;20035;-62
2023/10/14 05:01:00;;;;;;;7.68;3.13;;;;;;;;;;4960478;28;20091;-63
2023/10/14 05:03:28;;;;;;;6.88;3.00;;;;;;;;;;4960593;28;20086;-62
2023/10/14 05:05:57;;;;;;;2.80;1.40;;;;;;;;;;4959284;29;20459;-63
2023/10/14 05:08:27;;;;;;;3.88;0.90;;;;;;;;;;4960453;28;20031;-62
2023/10/14 05:10:53;;;;;;;1.27;0.70;;;;;;;;;;4958607;28;20469;-62
2023/10/14 05:13:31;;;;;;;2.60;0.80;;;;;;;;;;4957497;28;20106;-62
2023/10/14 05:16:15;;;;;;;2.05;0.70;;;;;;;;;;4957475;28;20055;-62
2023/10/14 05:18:43;;;;;;;3.17;1.25;;;;;;;;;;4957574;28;20455;-62
2023/10/14 05:21:35;;;;;;;1.40;0.75;;;;;;;;;;4956996;28;20388;-62
2023/10/14 05:24:00;;;;;;;2.78;0.73;;;;;;;;;;4957239;28;20105;-62
2023/10/14 05:26:27;;;;;;;4.97;1.10;;;;;;;;;;4971463;28;20027;-62
2023/10/14 05:28:53;;;;;;;3.25;0.90;;;;;;;;;;4976649;28;20109;-62
2023/10/14 05:31:18;;;;;;;2.90;1.02;;;;;;;;;;4976174;28;20047;-63
2023/10/14 05:33:44;;;;;;;1.38;0.68;;;;;;;;;;4984829;28;20038;-63
2023/10/14 05:36:09;;;;;;;2.67;0.77;;;;;;;;;;4995533;28;20026;-62
2023/10/14 05:38:35;;;;;;;2.17;1.00;;;;;;;;;;4995502;28;20038;-63
2023/10/14 05:41:01;;;;;;;3.17;0.70;;;;;;;;;;4995434;28;20027;-62
2023/10/14 05:43:27;;;;;;;2.70;1.00;;;;;;;;;;4995707;28;20027;-62
2023/10/14 05:45:53;;;;;;;2.25;0.77;;;;;;;;;;4994845;28;20424;-62
2023/10/14 05:48:26;;;;;;;1.45;0.68;;;;;;;;;;4975920;28;20515;-62
2023/10/14 05:50:54;;;;;;;1.75;0.80;;;;;;;;;;4975813;28;20472;-62
2023/10/14 05:53:20;;;;;;;6.18;0.95;;;;;;;;;;4976094;28;20392;-62
2023/10/14 05:55:47;;;;;;;2.58;0.75;;;;;;;;;;4975929;28;20464;-62
2023/10/14 05:58:13;;;;;;;2.33;1.13;;;;;;;;;;4975808;28;20035;-63
2023/10/14 06:00:41;;;;;;;3.65;0.90;;;;;;;;;;4975398;28;20080;-62
2023/10/14 06:03:11;;;;;;;3.50;0.80;;;;;;;;;;4975552;28;20026;-63
2023/10/14 06:05:37;;;;;;;4.95;1.10;;;;;;;;;;4975659;28;20070;-62
2023/10/14 06:08:16;;;;;;;2.03;0.90;;;;;;;;;;4975701;28;20066;-62
2023/10/14 06:10:42;;;;;;;2.47;0.70;;;;;;;;;;4975800;28;20058;-62
2023/10/14 06:13:12;;;;;;;2.53;0.80;;;;;;;;;;4975788;28;20058;-63
2023/10/14 06:15:41;;;;;;;4.93;0.90;;;;;;;;;;4975649;28;20062;-63
2023/10/14 06:18:13;;;;;;;1.55;0.80;;;;;;;;;;4975555;28;20077;-63
2023/10/14 06:20:41;;;;;;;2.30;0.68;;;;;;;;;;4975264;28;20447;-62
2023/10/14 06:23:08;;;;;;;2.30;0.80;;;;;;;;;;4974261;28;20023;-62
2023/10/14 06:25:34;;;;;;;1.45;0.70;;;;;;;;;;4975546;28;20034;-63
2023/10/14 06:28:03;;;;;;;3.50;1.67;;;;;;;;;;4975161;28;20022;-63
2023/10/14 06:30:29;;;;;;;3.60;0.90;;;;;;;;;;4975069;28;20558;-62
2023/10/14 06:33:03;;;;;;;1.95;0.95;;;;;;;;;;4977000;28;20403;-63
2023/10/14 06:35:33;;;;;;;2.72;0.70;;;;;;;;;;4994774;28;20062;-62
2023/10/14 06:37:58;;;;;;;2.63;0.70;;;;;;;;;;4994584;28;20030;-63
2023/10/14 06:40:24;;;;;;;2.15;0.70;;;;;;;;;;4994478;28;20081;-63
2023/10/14 06:42:50;;;;;;;2.55;0.60;;;;;;;;;;4994617;28;20028;-63
2023/10/14 06:45:21;;;;;;;1.90;0.68;;;;;;;;;;4994579;28;20108;-62
2023/10/14 06:47:56;;;;;;;2.08;0.70;;;;;;;;;;4994051;28;20050;-62
2023/10/14 06:50:25;;;;;;;1.90;0.80;;;;;;;;;;4994333;28;20026;-62
2023/10/14 06:53:07;;;;;;;1.23;0.77;;;;;;;;;;4994176;28;20037;-64
2023/10/14 06:55:40;;;;;;;2.63;0.70;;;;;;;;;;4994340;28;20031;-64
2023/10/14 06:58:08;;;;;;;1.35;0.70;;;;;;;;;;4994189;28;20411;-63
2023/10/14 07:00:37;;;;;;;2.45;0.70;;;;;;;;;;4994089;28;20038;-63
2023/10/14 07:03:03;;;;;;;3.88;0.82;;;;;;;;;;4993850;28;20430;-63
2023/10/14 07:05:29;;;;;;;2.30;0.80;;;;;;;;;;4994204;28;20109;-63
2023/10/14 07:07:57;;;;;;;1.05;0.50;;;;;;;;;;4994133;28;20794;-63
2023/10/14 07:10:27;;;;;;;3.47;0.70;;;;;;;;;;4993932;28;20034;-63
2023/10/14 07:13:00;;;;;;;2.55;0.75;;;;;;;;;;4994039;28;20026;-62
2023/10/14 07:15:27;;;;;;;1.40;0.70;;;;;;;;;;4993837;28;20023;-62
2023/10/14 07:17:54;;;;;;;2.92;0.60;;;;;;;;;;4993707;28;20041;-62
2023/10/14 07:20:22;;;;;;;4.80;0.70;;;;;;;;;;4993855;28;20499;-63
2023/10/14 07:22:49;;;;;;;1.17;0.50;;;;;;;;;;4993938;28;20030;-63
2023/10/14 07:25:15;;;;;;;1.73;0.80;;;;;;;;;;4988896;28;20031;-63
2023/10/14 07:27:41;;;;;;;2.47;0.70;;;;;;;;;;4974353;28;20030;-63
2023/10/14 07:30:13;;;;;;;3.80;0.77;;;;;;;;;;4974248;28;20031;-63
2023/10/14 07:32:48;;;;;;;1.90;0.60;;;;;;;;;;4973822;28;20043;-63
2023/10/14 07:35:18;;;;;;;1.42;0.68;;;;;;;;;;4954661;28;20038;-62
2023/10/14 07:37:45;;;;;;;2.40;0.80;;;;;;;;;;4953520;29;20044;-62
2023/10/14 07:40:22;;;;;;;5.88;1.85;;;;;;;;;;4971457;28;20060;-62
2023/10/14 07:42:56;;;;;;;2.70;0.88;;;;;;;;;;4970860;28;20477;-62
2023/10/14 07:45:28;;;;;;;1.08;0.60;;;;;;;;;;4963901;28;20075;-63
2023/10/14 07:47:57;;;;;;;5.28;0.88;;;;;;;;;;4962823;28;20503;-62
2023/10/14 07:50:24;;;;;;;1.00;0.60;;;;;;;;;;4963553;28;20117;-61
2023/10/14 07:52:51;;;;;;;5.53;0.93;;;;;;;;;;4964644;28;20030;-64
2023/10/14 07:55:22;;;;;;;2.72;0.63;;;;;;;;;;4959467;28;20031;-62
2023/10/14 07:57:51;;;;;;;2.70;0.90;;;;;;;;;;4954298;28;20110;-63
2023/10/14 08:00:17;;;;;;;2.85;0.80;;;;;;;;;;4952334;29;20365;-63
2023/10/14 08:02:43;;;;;;;1.75;0.63;;;;;;;;;;4954144;28;20030;-62
2023/10/14 08:05:09;;;;;;;3.47;0.88;;;;;;;;;;4954598;28;20031;-62
2023/10/14 08:07:40;;;;;;;3.30;0.90;;;;;;;;;;4954494;28;20108;-62
2023/10/14 08:10:17;;;;;;;2.35;0.70;;;;;;;;;;4954500;28;20135;-62
2023/10/14 08:12:47;;;;;;;4.93;1.00;;;;;;;;;;4954583;28;20042;-62
2023/10/14 08:15:14;;;;;;;3.90;0.90;;;;;;;;;;4954351;29;20023;-62
2023/10/14 08:17:42;;;;;;;4.03;1.13;;;;;;;;;;4954467;28;20035;-62
2023/10/14 08:20:18;;;;;;;4.53;1.10;;;;;;;;;;4954410;28;20477;-62
2023/10/14 08:22:45;;;;;;;5.75;1.20;;;;;;;;;;4954232;28;20027;-62
2023/10/14 08:25:12;;;;;;;3.22;1.00;;;;;;;;;;4958461;28;20102;-62
2023/10/14 08:27:38;;;;;;;5.32;1.55;;;;;;;;;;4973712;28;20102;-62
2023/10/14 08:30:10;;;;;;;7.97;1.48;;;;;;;;;;4973489;28;20053;-62
2023/10/14 08:32:38;;;;;;;5.10;1.23;;;;;;;;;;4973656;28;20388;-62
2023/10/14 08:35:14;;;;;;;7.55;1.52;;;;;;;;;;4992806;28;20058;-63
2023/10/14 08:37:51;;;;;;;5.68;1.38;;;;;;;;;;4993068;28;20034;-62
2023/10/14 08:40:19;;;;;;;6.28;1.30;;;;;;;;;;4992851;28;20027;-62
2023/10/14 08:42:54;;;;;;;3.72;0.95;;;;;;;;;;4992960;28;20019;-62
2023/10/14 08:45:22;;;;;;;5.00;1.40;;;;;;;;;;4992837;28;20081;-63
2023/10/14 08:47:54;;;;;;;9.80;1.92;;;;;;;;;;4996532;28;20027;-62
2023/10/14 08:50:24;;;;;;;7.78;1.60;;;;;;;;;;4996438;28;20045;-63
2023/10/14 08:52:51;;;;;;;8.77;1.77;;;;;;;;;;4996566;28;20156;-62
2023/10/14 08:55:19;;;;;;;7.82;2.00;;;;;;;;;;4996418;28;20035;-62
2023/10/14 08:57:45;;;;;;;7.93;1.45;;;;;;;;;;4996388;28;20030;-62
2023/10/14 09:00:13;;;;;;;7.53;1.42;;;;;;;;;;4996197;28;20026;-62
2023/10/14 09:02:40;;;;;;;5.53;2.00;;;;;;;;;;4996237;28;20022;-63
2023/10/14 09:05:11;;;;;;;7.30;1.73;;;;;;;;;;4996150;28;20030;-62
2023/10/14 09:07:38;;;;;;;6.40;1.20;;;;;;;;;;4996278;28;20109;-62
2023/10/14 09:10:05;;;;;;;7.20;1.90;;;;;;;;;;4996215;28;20077;-63
2023/10/14 09:12:32;;;;;;;6.47;1.80;;;;;;;;;;4995813;28;20036;-63
2023/10/14 09:14:57;;;;;;;5.22;1.48;;;;;;;;;;4996024;28;20049;-62
2023/10/14 09:17:23;;;;;;;7.38;2.20;;;;;;;;;;4995964;28;20061;-63
2023/10/14 09:19:50;;;;;;;9.57;1.73;;;;;;;;;;4995396;28;20027;-63
2023/10/14 09:22:27;;;;;;;6.72;1.85;;;;;;;;;;4956951;28;20027;-65
2023/10/14 09:24:58;;;;;;;11.85;1.95;;;;;;;;;;4959015;28;20035;-62
2023/10/14 09:27:26;;;;;;;4.25;1.70;;;;;;;;;;4976233;28;20109;-64
2023/10/14 09:29:53;;;;;;;5.93;1.40;;;;;;;;;;4976377;28;20085;-63
2023/10/14 09:32:18;;;;;;;4.45;1.30;;;;;;;;;;4975998;28;20050;-63
2023/10/14 09:34:44;;;;;;;5.78;1.17;;;;;;;;;;4992522;28;20042;-64
2023/10/14 09:37:12;;;;;;;9.02;1.70;;;;;;;;;;4995432;28;20026;-64
2023/10/14 09:39:41;;;;;;;6.50;1.40;;;;;;;;;;4995602;28;20026;-62
2023/10/14 09:42:11;;;;;;;6.97;1.33;;;;;;;;;;4995239;28;20018;-64
2023/10/14 09:44:42;;;;;;;;;;;;;;;;;;4996154;28;20121;-64
2023/10/14 09:47:12;;;;;;;7.93;1.40;;;;;;;;;;4995617;28;19964;-63
2023/10/14 09:49:38;;;;;;;6.38;1.48;;;;;;;;;;4995509;28;20026;-62
2023/10/14 09:52:05;;;;;;;5.43;1.40;;;;;;;;;;4995474;28;20137;-63
2023/10/14 09:54:34;;;;;;;7.15;1.20;;;;;;;;;;4995076;28;20045;-66
2023/10/14 09:57:03;;;;;;;6.40;1.40;;;;;;;;;;4994808;28;20030;-63
2023/10/14 09:59:30;;;;;;;10.07;1.63;;;;;;;;;;4995392;28;20118;-63
2023/10/14 10:01:56;;;;;;;5.28;1.58;;;;;;;;;;4995222;28;20033;-67
2023/10/14 10:04:26;;;;;;;8.70;1.58;;;;;;;;;;4994851;28;20034;-64
2023/10/14 10:07:26;;;;;;;6.07;1.73;;;;;;;;;;4995199;28;20030;-64
2023/10/14 10:10:28;;;;;;;8.20;1.50;;;;;;;;;;4995146;28;20356;-63
2023/10/14 10:12:55;;;;;;;5.70;1.40;;;;;;;;;;4973699;28;20840;-63
2023/10/14 10:15:24;;;;;;;5.40;1.25;;;;;;;;;;4973303;28;20031;-63
2023/10/14 10:18:16;;;;;;;5.82;1.40;;;;;;;;;;4973436;28;20333;-63
2023/10/14 10:20:56;;;;;;;7.80;1.23;;;;;;;;;;4973433;28;20488;-65
2023/10/14 10:23:24;;;;;;;7.82;1.40;;;;;;;;;;4973297;28;20484;-65
2023/10/14 10:25:51;;;;;;;6.47;1.58;;;;;;;;;;4963620;28;20083;-62
2023/10/14 10:28:25;;;;;;;4.28;1.27;;;;;;;;;;4953717;29;20040;-62
2023/10/14 10:30:52;;;;;;;5.60;1.40;;;;;;;;;;4953833;29;20035;-63
2023/10/14 10:33:18;;;;;;;6.03;1.00;;;;;;;;;;4958834;28;20431;-62
2023/10/14 10:36:03;;;;;;;6.28;1.38;;;;;;;;;;4972989;28;20027;-62
2023/10/14 10:38:36;;;;;;;5.53;1.38;;;;;;;;;;4973072;28;20030;-62
2023/10/14 10:41:31;;;;;;;5.75;1.40;;;;;;;;;;4972666;28;20072;-64
2023/10/14 10:44:05;;;;;;;6.97;1.20;;;;;;;;;;4964813;28;20051;-71
2023/10/14 10:46:38;;;;;;;5.65;1.13;;;;;;;;;;4980739;28;20038;-72
2023/10/14 10:49:06;;;;;;;6.18;1.80;;;;;;;;;;4994488;28;20026;-65
2023/10/14 10:51:36;;;;;;;5.75;1.30;;;;;;;;;;4994342;28;20031;-68
2023/10/14 10:54:02;;;;;;;8.40;1.75;;;;;;;;;;4994171;28;20033;-65
2023/10/14 10:56:34;;;;;;;7.00;1.08;;;;;;;;;;4994240;28;20046;-71
2023/10/14 10:59:04;;;;;;;9.18;3.90;;;;;;;;;;4994379;28;20033;-71
2023/10/14 11:01:33;;;;;;;9.57;1.67;;;;;;;;;;4994420;28;20112;-72
2023/10/14 11:04:00;;;;;;;10.07;1.60;;;;;;;;;;4992535;28;20074;-70
2023/10/14 11:06:29;;;;;;;8.07;1.35;;;;;;;;;;4994006;28;20035;-72
2023/10/14 11:08:57;;;;;;;6.13;1.40;;;;;;;;;;4993269;28;20030;-70
2023/10/14 11:11:31;;;;;;;5.38;1.10;;;;;;;;;;4994005;28;20034;-72
2023/10/14 11:13:57;;;;;;;7.30;1.70;;;;;;;;;;4994062;28;20044;-72
2023/10/14 11:16:25;;;;;;;3.22;1.10;;;;;;;;;;4993753;28;20033;-71
2023/10/14 11:18:50;;;;;;;7.20;1.63;;;;;;;;;;4993869;28;20073;-69
2023/10/14 11:21:17;;;;;;;11.50;1.00;;;;;;;;;;4993776;28;20022;-69
2023/10/14 11:23:43;;;;;;;5.55;1.25;;;;;;;;;;4993501;28;20030;-70
2023/10/14 11:26:15;;;;;;;8.30;1.42;;;;;;;;;;4981593;28;20031;-69
2023/10/14 11:28:45;;;;;;;5.03;1.33;;;;;;;;;;4974159;28;20484;-70
2023/10/14 11:31:11;;;;;;;6.93;1.08;;;;;;;;;;4974022;28;20050;-70
2023/10/14 11:33:36;;;;;;;9.18;1.63;;;;;;;;;;4981640;28;20031;-71
2023/10/14 11:36:03;;;;;;;4.07;1.17;;;;;;;;;;4993288;28;20181;-72
2023/10/14 11:38:30;;;;;;;6.82;1.20;;;;;;;;;;4993211;28;20436;-70
2023/10/14 11:40:58;;;;;;;5.75;1.13;;;;;;;;;;4993396;28;20037;-69
2023/10/14 11:43:24;;;;;;;9.13;1.55;;;;;;;;;;4993753;28;20026;-68
2023/10/14 11:45:51;;;;;;;6.65;1.48;;;;;;;;;;4993397;28;20152;-64
2023/10/14 11:48:25;;;;;;;6.65;1.33;;;;;;;;;;4993229;28;20029;-65
2023/10/14 11:50:58;;;;;;;6.63;1.42;;;;;;;;;;4993338;28;20109;-67
2023/10/14 11:53:30;;;;;;;4.13;0.95;;;;;;;;;;4993272;28;20038;-63
2023/10/14 11:55:59;;;;;;;4.45;1.20;;;;;;;;;;4993172;28;20037;-65
2023/10/14 11:58:27;;;;;;;9.27;1.33;;;;;;;;;;4993288;28;20123;-68
2023/10/14 12:00:52;;;;;;;3.75;1.00;;;;;;;;;;4993154;28;20799;-68
2023/10/14 12:03:17;;;;;;;4.55;1.10;;;;;;;;;;4993286;28;20030;-64
2023/10/14 12:05:43;;;;;;;5.47;1.10;;;;;;;;;;4993238;28;20483;-69
2023/10/14 12:08:08;;;;;;;11.85;1.40;;;;;;;;;;4992966;28;20424;-68
2023/10/14 12:10:34;;;;;;;14.73;5.13;;;;;;;;;;4993103;28;20026;-63
2023/10/14 12:13:00;;;;;;;9.65;2.83;;;;;;;;;;4993063;28;20026;-68
2023/10/14 12:15:27;;;;;;;9.05;1.80;;;;;;;;;;4993000;28;20030;-66
2023/10/14 12:17:53;;;;;;;5.70;1.55;;;;;;;;;;4993036;28;20081;-68
2023/10/14 12:20:19;;;;;;;5.50;1.08;;;;;;;;;;4994642;28;20026;-67
2023/10/14 12:22:47;;;;;;;6.80;1.35;;;;;;;;;;4997084;28;20030;-69
2023/10/14 12:25:17;;;;;;;4.25;1.10;;;;;;;;;;4992580;28;20093;-65
2023/10/14 12:27:43;;;;;;;4.28;1.17;;;;;;;;;;4977631;28;20058;-68
2023/10/14 12:30:28;;;;;;;7.63;1.20;;;;;;;;;;4977275;28;20078;-69
2023/10/14 12:32:53;;;;;;;9.00;1.80;;;;;;;;;;4977240;28;20523;-70
2023/10/14 12:35:27;;;;;;;7.75;1.33;;;;;;;;;;4977389;28;20034;-69
2023/10/14 12:37:55;;;;;;;5.82;1.17;;;;;;;;;;4977252;28;20038;-70
2023/10/14 12:40:24;;;;;;;5.60;1.33;;;;;;;;;;4977020;28;20400;-68
2023/10/14 12:42:54;;;;;;;5.97;1.30;;;;;;;;;;4977317;28;20139;-69
2023/10/14 12:45:23;;;;;;;9.65;1.77;;;;;;;;;;4977173;28;20023;-69
2023/10/14 12:48:00;;;;;;;4.75;1.15;;;;;;;;;;4977022;28;20034;-70
2023/10/14 12:50:27;;;;;;;5.95;2.15;;;;;;;;;;4975722;28;20514;-69
2023/10/14 12:53:02;;;;;;;6.00;1.02;;;;;;;;;;4977023;28;20033;-69
2023/10/14 12:55:30;;;;;;;5.53;1.30;;;;;;;;;;4977035;28;20125;-70
2023/10/14 12:57:57;;;;;;;5.85;1.23;;;;;;;;;;4976916;28;20070;-67
2023/10/14 13:00:29;;;;;;;7.35;1.02;;;;;;;;;;4976792;28;20033;-69
2023/10/14 13:02:56;;;;;;;5.25;0.88;;;;;;;;;;4976780;28;20019;-66
2023/10/14 13:05:22;;;;;;;7.82;1.02;;;;;;;;;;4976536;28;20105;-70
2023/10/14 13:07:52;;;;;;;1.95;0.90;;;;;;;;;;4976743;28;20034;-69
2023/10/14 13:10:18;;;;;;;7.07;0.90;;;;;;;;;;4976570;28;20396;-69
2023/10/14 13:12:51;;;;;;;7.75;1.20;;;;;;;;;;4976383;28;20027;-65
2023/10/14 13:15:30;;;;;;;5.32;0.90;;;;;;;;;;4976771;28;20408;-67
2023/10/14 13:17:57;;;;;;;6.10;1.08;;;;;;;;;;4976636;28;20045;-65
2023/10/14 13:20:34;;;;;;;5.25;1.10;;;;;;;;;;4976391;28;20023;-67
2023/10/14 13:23:07;;;;;;;4.35;0.80;;;;;;;;;;4976645;28;20078;-63
2023/10/14 13:25:36;;;;;;;4.97;1.52;;;;;;;;;;4976683;28;20031;-67
2023/10/14 13:28:02;;;;;;;4.45;0.98;;;;;;;;;;4976367;28;20031;-65
2023/10/14 13:30:29;;;;;;;6.35;1.20;;;;;;;;;;4976432;28;20218;-63
2023/10/14 13:32:56;;;;;;;6.22;1.13;;;;;;;;;;4977339;28;20058;-67
2023/10/14 13:35:23;;;;;;;4.93;0.85;;;;;;;;;;4995422;28;20045;-67
2023/10/14 13:37:49;;;;;;;4.57;0.98;;;;;;;;;;4995758;28;20030;-67
2023/10/14 13:40:20;;;;;;;9.27;1.52;;;;;;;;;;4995629;28;20281;-66
2023/10/14 13:42:50;;;;;;;6.18;1.25;;;;;;;;;;4995731;28;20027;-62
2023/10/14 13:45:19;;;;;;;8.80;1.45;;;;;;;;;;4995586;28;20034;-69
2023/10/14 13:47:48;;;;;;;8.93;1.55;;;;;;;;;;4989380;28;20049;-65
2023/10/14 13:50:20;;;;;;;5.10;1.27;;;;;;;;;;4965105;28;20035;-69
2023/10/14 13:52:51;;;;;;;4.05;0.77;;;;;;;;;;4994614;28;20042;-63
2023/10/14 13:55:18;;;;;;;3.00;0.82;;;;;;;;;;4994101;28;20038;-69
2023/10/14 13:57:46;;;;;;;3.55;1.10;;;;;;;;;;4994585;28;20031;-65
2023/10/14 14:00:18;;;;;;;1.65;0.70;;;;;;;;;;4994925;28;20442;-69
2023/10/14 14:02:46;;;;;;;2.25;0.70;;;;;;;;;;4994511;28;20548;-62
2023/10/14 14:05:12;;;;;;;6.13;1.33;;;;;;;;;;4995195;28;20037;-69
2023/10/14 14:07:39;;;;;;;5.90;1.35;;;;;;;;;;4995128;28;20475;-68
2023/10/14 14:10:05;;;;;;;2.65;0.82;;;;;;;;;;4995336;28;20108;-68
2023/10/14 14:12:32;;;;;;;4.40;1.75;;;;;;;;;;4995284;28;20467;-69
2023/10/14 14:14:57;;;;;;;6.82;1.70;;;;;;;;;;4995136;28;20026;-64
2023/10/14 14:17:25;;;;;;;4.63;1.10;;;;;;;;;;4994893;28;20026;-70
2023/10/14 14:19:51;;;;;;;6.00;1.00;;;;;;;;;;4995012;28;20469;-68
2023/10/14 14:22:18;;;;;;;4.63;0.80;;;;;;;;;;4994931;28;20029;-69
2023/10/14 14:24:45;;;;;;;4.25;0.95;;;;;;;;;;4995135;28;20077;-69
2023/10/14 14:27:11;;;;;;;3.65;1.02;;;;;;;;;;4994917;28;20034;-69
2023/10/14 14:29:37;;;;;;;4.60;0.95;;;;;;;;;;4994904;28;20430;-70
2023/10/14 14:32:05;;;;;;;3.50;0.90;;;;;;;;;;4994507;28;20046;-67
2023/10/14 14:34:31;;;;;;;2.67;0.90;;;;;;;;;;4994648;28;20022;-69
2023/10/14 14:36:57;;;;;;;6.72;1.20;;;;;;;;;;4994536;28;20057;-70
2023/10/14 14:39:22;;;;;;;7.80;1.75;;;;;;;;;;4994791;28;20084;-68
2023/10/14 14:41:50;;;;;;;4.95;1.45;;;;;;;;;;4994532;28;20023;-70
2023/10/14 14:44:16;;;;;;;5.07;0.88;;;;;;;;;;4993907;28;20138;-70
2023/10/14 14:46:42;;;;;;;3.35;0.95;;;;;;;;;;4994360;28;20093;-66
2023/10/14 14:49:12;;;;;;;4.03;0.88;;;;;;;;;;4994511;28;20035;-68
2023/10/14 14:51:40;;;;;;;3.28;0.80;;;;;;;;;;4994680;28;20018;-68
2023/10/14 14:54:06;;;;;;;5.63;0.90;;;;;;;;;;4994594;28;20038;-70
2023/10/14 14:56:32;;;;;;;3.05;0.82;;;;;;;;;;4992300;28;20052;-66
2023/10/14 14:58:58;;;;;;;3.65;0.80;;;;;;;;;;4974593;28;20058;-74
2023/10/14 15:01:29;;;;;;;1.95;0.80;;;;;;;;;;4969929;28;20023;-71
2023/10/14 15:03:55;;;;;;;6.32;1.15;;;;;;;;;;4971752;28;20029;-74
2023/10/14 15:06:23;;;;;;;4.60;0.95;;;;;;;;;;4970215;28;20023;-76
2023/10/14 15:08:52;;;;;;;4.05;1.15;;;;;;;;;;4979969;28;20490;-69
2023/10/14 15:11:19;;;;;;;3.15;0.70;;;;;;;;;;4977793;28;20034;-71
2023/10/14 15:13:44;;;;;;;2.92;1.00;;;;;;;;;;4990123;28;20022;-70
2023/10/14 15:16:10;;;;;;;4.20;1.02;;;;;;;;;;4975294;28;20388;-70
2023/10/14 15:18:36;;;;;;;3.53;0.90;;;;;;;;;;4970422;28;20026;-70
2023/10/14 15:21:02;;;;;;;3.20;0.77;;;;;;;;;;4969545;28;20025;-69
2023/10/14 15:23:28;;;;;;;4.03;1.08;;;;;;;;;;4968705;28;20396;-70
2023/10/14 15:25:55;;;;;;;4.78;0.70;;;;;;;;;;4973153;28;20023;-70
2023/10/14 15:28:22;;;;;;;5.25;1.40;;;;;;;;;;4985701;28;20026;-69
2023/10/14 15:30:48;;;;;;;3.33;1.33;;;;;;;;;;4977349;28;20031;-68